Flight Track Log - Related Links

Times and Time Zones

All times are in EDT time to prevent confusion due to time zone crossing. See the CES5800 flight status page for this flight to view local times or setup timezone preferences in your user account.

Time Position Orientation Groundspeed Altitude Reporting Facility
EDT Latitude Longitude Course Direction KTS MPH feet Rate Location/Type
Sun 06:13:00 AM 34.0320 111.5974 223° Southwest  Level Estimated
Sun 06:14:00 AM 33.9529 111.5104 222° Southwest  Level Estimated
Sun 06:15:00 AM 33.8737 111.4235 222° Southwest  Level Estimated
Sun 06:16:00 AM 33.7945 111.3367 222° Southwest  Level Estimated
Sun 06:17:00 AM 33.7152 111.2502 222° Southwest  Level Estimated
Sun 06:18:00 AM 33.6359 111.1637 222° Southwest  Level Estimated
Sun 06:19:00 AM 33.5565 111.0775 222° Southwest  Level Estimated
Sun 06:20:00 AM 33.4770 110.9914 222° Southwest  Level Estimated
Sun 06:21:00 AM 33.3975 110.9055 222° Southwest  Level Estimated
Sun 06:22:00 AM 33.3179 110.8197 222° Southwest  Level Estimated
Sun 06:23:00 AM 33.2383 110.7340 222° Southwest  Level Estimated
Sun 06:24:00 AM 33.1586 110.6486 222° Southwest  Level Estimated
Sun 06:25:00 AM 33.0788 110.5633 222° Southwest  Level Estimated
Sun 06:26:00 AM 32.9990 110.4781 222° Southwest  Level Estimated
Sun 06:27:00 AM 32.9191 110.3931 222° Southwest  Level Estimated
Sun 06:28:00 AM 32.8392 110.3083 222° Southwest  Level Estimated
Sun 06:29:00 AM 32.7592 110.2236 222° Southwest  Level Estimated
Sun 06:30:00 AM 32.6791 110.1390 222° Southwest  Level Estimated
Sun 06:31:00 AM 32.5990 110.0546 222° Southwest  Level Estimated
Sun 06:32:00 AM 32.5189 109.9704 222° Southwest  Level Estimated
Sun 06:33:00 AM 32.4387 109.8863 222° Southwest  Level Estimated
Sun 06:34:00 AM 32.3584 109.8023 221° Southwest  Level Estimated
Sun 06:35:00 AM 32.2781 109.7185 221° Southwest  Level Estimated
Sun 06:36:00 AM 32.1977 109.6349 221° Southwest  Level Estimated
Sun 06:37:00 AM 32.1172 109.5514 221° Southwest  Level Estimated
Sun 06:38:00 AM 32.0368 109.4680 221° Southwest  Level Estimated
Sun 06:39:00 AM 31.9562 109.3848 221° Southwest  Level Estimated
Sun 06:40:00 AM 31.8756 109.3018 221° Southwest  Level Estimated
Sun 06:41:00 AM 31.7950 109.2188 221° Southwest  Level Estimated
Sun 06:42:00 AM 31.7142 109.1361 221° Southwest  Level Estimated
Sun 06:43:00 AM 31.6335 109.0535 221° Southwest  Level Estimated
Sun 06:44:00 AM 31.5527 108.9710 221° Southwest  Level Estimated
Sun 06:45:00 AM 31.4718 108.8886 221° Southwest  Level Estimated
Sun 06:46:00 AM 31.3909 108.8064 221° Southwest  Level Estimated
Sun 06:47:00 AM 31.3099 108.7244 221° Southwest  Level Estimated
Sun 06:48:00 AM 31.2289 108.6425 221° Southwest  Level Estimated
Sun 06:49:00 AM 31.1478 108.5607 221° Southwest  Level Estimated
Sun 06:50:00 AM 31.0667 108.4790 221° Southwest  Level Estimated
Sun 06:51:00 AM 30.9855 108.3976 221° Southwest  Level Estimated
Sun 06:52:00 AM 30.9043 108.3162 221° Southwest  Level Estimated
Sun 06:53:00 AM 30.8230 108.2350 221° Southwest  Level Estimated
Sun 06:54:00 AM 30.7417 108.1539 221° Southwest  Level Estimated
Sun 06:55:00 AM 30.6603 108.0730 221° Southwest  Level Estimated
Sun 06:56:00 AM 30.5788 107.9921 221° Southwest  Level Estimated
Sun 06:57:00 AM 30.4974 107.9115 220° Southwest  Level Estimated
Sun 06:58:00 AM 30.4158 107.8309 220° Southwest  Level Estimated
Sun 06:59:00 AM 30.3342 107.7505 220° Southwest  Level Estimated
Sun 07:00:00 AM 30.2526 107.6702 220° Southwest  Level Estimated
Sun 07:01:00 AM 30.1709 107.5901 220° Southwest  Level Estimated
Sun 07:02:00 AM 30.0892 107.5101 220° Southwest  Level Estimated
Sun 07:03:00 AM 30.0074 107.4302 220° Southwest  Level Estimated
Sun 07:04:00 AM 29.9256 107.3505 220° Southwest  Level Estimated
Sun 07:05:00 AM 29.8438 107.2709 220° Southwest  Level Estimated
Sun 07:06:00 AM 29.7618 107.1914 220° Southwest  Level Estimated
Sun 07:07:00 AM 29.6799 107.1121 220° Southwest  Level Estimated
Sun 07:08:00 AM 29.5979 107.0328 220° Southwest  Level Estimated
Sun 07:09:00 AM 29.5158 106.9538 220° Southwest  Level Estimated
Sun 07:10:00 AM 29.4337 106.8748 220° Southwest  Level Estimated
Sun 07:11:00 AM 29.3515 106.7960 220° Southwest  Level Estimated
Sun 07:12:00 AM 29.2693 106.7172 220° Southwest  Level Estimated
Sun 07:13:00 AM 29.1871 106.6387 220° Southwest  Level Estimated
Sun 07:14:00 AM 29.1048 106.5602 220° Southwest  Level Estimated
Sun 07:15:00 AM 29.0224 106.4819 220° Southwest  Level Estimated
Sun 07:16:00 AM 28.9401 106.4037 220° Southwest  Level Estimated
Sun 07:17:00 AM 28.8576 106.3256 220° Southwest  Level Estimated
Sun 07:18:00 AM 28.7752 106.2476 220° Southwest  Level Estimated
Sun 07:19:00 AM 28.6926 106.1698 220° Southwest  Level Estimated
Sun 07:20:00 AM 28.6101 106.0921 220° Southwest  Level Estimated
Sun 07:21:00 AM 28.5275 106.0145 220° Southwest  Level Estimated
Sun 07:22:00 AM 28.4448 105.9370 220° Southwest  Level Estimated
Sun 07:23:00 AM 28.3621 105.8597 219° Southwest  Level Estimated
Sun 07:24:00 AM 28.2794 105.7825 219° Southwest  Level Estimated
Sun 07:25:00 AM 28.1966 105.7054 219° Southwest  Level Estimated
Sun 07:26:00 AM 28.1138 105.6284 219° Southwest  Level Estimated
Sun 07:27:00 AM 28.0309 105.5515 219° Southwest  Level Estimated
Sun 07:28:00 AM 27.9480 105.4747 219° Southwest  Level Estimated
Sun 07:29:00 AM 27.8651 105.3981 219° Southwest  Level Estimated
Sun 07:30:00 AM 27.7821 105.3216 219° Southwest  Level Estimated
Sun 07:31:00 AM 27.6990 105.2452 219° Southwest  Level Estimated
Sun 07:32:00 AM 27.6160 105.1689 219° Southwest  Level Estimated
Sun 07:33:00 AM 27.5328 105.0928 219° Southwest  Level Estimated
Sun 07:34:00 AM 27.4497 105.0167 219° Southwest  Level Estimated
Sun 07:35:00 AM 27.3665 104.9408 219° Southwest  Level Estimated
Sun 07:36:00 AM 27.2832 104.8650 219° Southwest  Level Estimated
Sun 07:37:00 AM 27.1999 104.7892 219° Southwest  Level Estimated
Sun 07:38:00 AM 27.1166 104.7136 219° Southwest  Level Estimated
Sun 07:39:00 AM 27.0333 104.6382 219° Southwest  Level Estimated
Sun 07:40:00 AM 26.9499 104.5628 219° Southwest  Level Estimated
Sun 07:41:00 AM 26.8664 104.4875 219° Southwest  Level Estimated
Sun 07:42:00 AM 26.7829 104.4124 219° Southwest  Level Estimated
Sun 07:43:00 AM 26.6994 104.3373 219° Southwest  Level Estimated
Sun 07:44:00 AM 26.6158 104.2624 219° Southwest  Level Estimated
Sun 07:45:00 AM 26.5322 104.1876 219° Southwest  Level Estimated
Sun 07:46:00 AM 26.4486 104.1129 219° Southwest  Level Estimated
Sun 07:47:00 AM 26.3649 104.0383 219° Southwest  Level Estimated
Sun 07:48:00 AM 26.2812 103.9638 219° Southwest  Level Estimated
Sun 07:49:00 AM 26.1974 103.8894 219° Southwest  Level Estimated
Sun 07:50:00 AM 26.1136 103.8151 219° Southwest  Level Estimated
Sun 07:51:00 AM 26.0298 103.7410 218° Southwest  Level Estimated
Sun 07:52:00 AM 25.9459 103.6669 218° Southwest  Level Estimated
Sun 07:53:00 AM 25.8620 103.5929 218° Southwest  Level Estimated
Sun 07:54:00 AM 25.7781 103.5191 218° Southwest  Level Estimated
Sun 07:55:00 AM 25.6941 103.4453 218° Southwest  Level Estimated
Sun 07:56:00 AM 25.6101 103.3717 218° Southwest  Level Estimated
Sun 07:57:00 AM 25.5260 103.2981 218° Southwest  Level Estimated
Sun 07:58:00 AM 25.4419 103.2247 218° Southwest  Level Estimated
Sun 07:59:00 AM 25.3578 103.1514 218° Southwest  Level Estimated
Sun 08:00:00 AM 25.2736 103.0781 218° Southwest  Level Estimated
Sun 08:01:00 AM 25.1894 103.0050 218° Southwest  Level Estimated
Sun 08:02:00 AM 25.1052 102.9319 218° Southwest  Level Estimated
Sun 08:03:00 AM 25.1019 102.9292 218° Southwest  Level Estimated
Sun 08:04:00 AM 25.1019 102.9292 North  Level Estimated
Sun 08:05:00 AM 25.1019 102.9292 North  Level Estimated
Sun 08:06:00 AM 25.1019 102.9292 North  Level Estimated
Sun 08:07:00 AM 25.1019 102.9292 North  Level Estimated
Sun 08:08:00 AM 25.1019 102.9292 North  Level Estimated
Sun 08:09:00 AM 25.1019 102.9292 North  Level Estimated
Sun 08:10:00 AM 25.1019 102.9292 North  Level Estimated
Sun 08:11:00 AM 25.1019 102.9292 North  Level Estimated
Sun 08:12:00 AM 25.1019 102.9292 North  Level Estimated
Sun 08:13:00 AM 25.1019 102.9292 North  Level Estimated
Sun 08:14:00 AM 25.1019 102.9292 North  Level Estimated
Sun 08:15:00 AM 25.1019 102.9292 North  Level Estimated
Sun 08:16:00 AM 25.1019 102.9292 North  Level Estimated
Sun 08:17:00 AM 25.1019 102.9292 North  Level Estimated
Sun 08:18:00 AM 25.1019 102.9292 North  Level Estimated

Login

Don't have an account? Register now (free) for customized features, flight alerts, and more!